Mc Clave, Colorado
Current Conditions -  °F | °C
As of 8:53 PM on Wednesday 17 Dec 2014 (Local Time) from KLAA Reporting Station
Haze Haze  
Wind Chill: 22°   Ceiling: 300
Heat Index: 29°   Visibility: 3mi
Dew Point: 28°   Wind: 7mph
Humidity: 96%   Direction: 30°NNE
Pressure: 30.01"   Gusts: NA
Location:  38.0584°N, 102.928°W
Report Text: KLAA 180353Z AUTO 03006KT 3SM BR OVC003 M02/M02 A3001 RMK AO2 SLP183 I1001 T10171022
Loading
Personal Weather Stations






























Interactive Weather Map New forecast layout! Learn more

10-Day Weather Forecast

Advertisements
Track Severe Weather on mobile